sensor_id;sensor_type;location;lat;lon;timestamp;P1;durP1;ratioP1;P2;durP2;ratioP2
38787;SDS011;24536;45.488;12.238;2024-01-11T00:02:21;14.00;;;7.22;;
38787;SDS011;24536;45.488;12.238;2024-01-11T00:04:47;11.65;;;6.60;;
38787;SDS011;24536;45.488;12.238;2024-01-11T00:07:13;11.18;;;7.60;;
38787;SDS011;24536;45.488;12.238;2024-01-11T00:09:39;13.55;;;7.95;;
38787;SDS011;24536;45.488;12.238;2024-01-11T00:12:06;13.00;;;7.15;;
38787;SDS011;24536;45.488;12.238;2024-01-11T00:14:32;13.52;;;7.28;;
38787;SDS011;24536;45.488;12.238;2024-01-11T00:16:58;11.60;;;6.88;;
38787;SDS011;24536;45.488;12.238;2024-01-11T00:19:23;11.32;;;6.72;;
38787;SDS011;24536;45.488;12.238;2024-01-11T00:21:49;13.95;;;8.35;;
38787;SDS011;24536;45.488;12.238;2024-01-11T00:24:15;13.43;;;7.60;;
38787;SDS011;24536;45.488;12.238;2024-01-11T00:26:41;11.18;;;6.20;;
38787;SDS011;24536;45.488;12.238;2024-01-11T00:29:07;12.23;;;7.35;;
38787;SDS011;24536;45.488;12.238;2024-01-11T00:31:32;16.80;;;8.43;;
38787;SDS011;24536;45.488;12.238;2024-01-11T00:33:58;7.72;;;5.40;;
38787;SDS011;24536;45.488;12.238;2024-01-11T00:36:24;12.30;;;7.30;;
38787;SDS011;24536;45.488;12.238;2024-01-11T00:38:50;14.90;;;9.35;;
38787;SDS011;24536;45.488;12.238;2024-01-11T00:41:15;12.45;;;6.97;;
38787;SDS011;24536;45.488;12.238;2024-01-11T00:43:42;14.70;;;7.93;;
38787;SDS011;24536;45.488;12.238;2024-01-11T00:46:07;13.32;;;8.20;;
38787;SDS011;24536;45.488;12.238;2024-01-11T00:48:33;12.45;;;7.82;;
38787;SDS011;24536;45.488;12.238;2024-01-11T00:50:59;13.80;;;8.38;;
38787;SDS011;24536;45.488;12.238;2024-01-11T00:53:24;14.70;;;7.85;;
38787;SDS011;24536;45.488;12.238;2024-01-11T00:55:55;15.85;;;9.15;;
38787;SDS011;24536;45.488;12.238;2024-01-11T00:58:21;20.13;;;12.35;;
38787;SDS011;24536;45.488;12.238;2024-01-11T01:00:47;18.27;;;8.20;;
38787;SDS011;24536;45.488;12.238;2024-01-11T01:03:14;13.95;;;8.40;;
38787;SDS011;24536;45.488;12.238;2024-01-11T01:05:41;12.73;;;7.97;;
38787;SDS011;24536;45.488;12.238;2024-01-11T01:08:07;18.00;;;9.27;;
38787;SDS011;24536;45.488;12.238;2024-01-11T01:10:33;11.73;;;7.35;;
38787;SDS011;24536;45.488;12.238;2024-01-11T01:12:58;17.00;;;9.75;;
38787;SDS011;24536;45.488;12.238;2024-01-11T01:15:24;18.88;;;9.82;;
38787;SDS011;24536;45.488;12.238;2024-01-11T01:17:50;16.10;;;9.10;;
38787;SDS011;24536;45.488;12.238;2024-01-11T01:20:15;17.55;;;9.95;;
38787;SDS011;24536;45.488;12.238;2024-01-11T01:22:41;15.57;;;9.55;;
38787;SDS011;24536;45.488;12.238;2024-01-11T01:25:07;16.90;;;9.45;;
38787;SDS011;24536;45.488;12.238;2024-01-11T01:27:33;13.77;;;9.57;;
38787;SDS011;24536;45.488;12.238;2024-01-11T01:29:58;16.35;;;9.68;;
38787;SDS011;24536;45.488;12.238;2024-01-11T01:32:24;16.67;;;9.95;;
38787;SDS011;24536;45.488;12.238;2024-01-11T01:34:49;18.10;;;9.98;;
38787;SDS011;24536;45.488;12.238;2024-01-11T01:37:15;19.92;;;12.20;;
38787;SDS011;24536;45.488;12.238;2024-01-11T01:39:41;19.75;;;12.93;;
38787;SDS011;24536;45.488;12.238;2024-01-11T01:42:07;29.27;;;13.02;;
38787;SDS011;24536;45.488;12.238;2024-01-11T01:44:33;18.30;;;10.02;;
38787;SDS011;24536;45.488;12.238;2024-01-11T01:46:59;13.07;;;8.15;;
38787;SDS011;24536;45.488;12.238;2024-01-11T01:49:25;21.33;;;10.70;;
38787;SDS011;24536;45.488;12.238;2024-01-11T01:51:52;22.75;;;12.43;;
38787;SDS011;24536;45.488;12.238;2024-01-11T01:54:19;18.98;;;10.25;;
38787;SDS011;24536;45.488;12.238;2024-01-11T01:56:46;14.60;;;8.93;;
38787;SDS011;24536;45.488;12.238;2024-01-11T01:59:12;16.67;;;10.20;;
38787;SDS011;24536;45.488;12.238;2024-01-11T02:01:38;22.75;;;12.73;;
38787;SDS011;24536;45.488;12.238;2024-01-11T02:04:05;15.55;;;10.32;;
38787;SDS011;24536;45.488;12.238;2024-01-11T02:06:31;16.17;;;10.32;;
38787;SDS011;24536;45.488;12.238;2024-01-11T02:08:59;23.80;;;10.40;;
38787;SDS011;24536;45.488;12.238;2024-01-11T02:11:29;15.00;;;8.73;;
38787;SDS011;24536;45.488;12.238;2024-01-11T02:13:55;17.60;;;10.68;;
38787;SDS011;24536;45.488;12.238;2024-01-11T02:16:22;22.98;;;13.23;;
38787;SDS011;24536;45.488;12.238;2024-01-11T02:18:48;20.92;;;11.40;;
38787;SDS011;24536;45.488;12.238;2024-01-11T02:21:14;15.70;;;10.10;;
38787;SDS011;24536;45.488;12.238;2024-01-11T02:23:53;17.83;;;10.30;;
38787;SDS011;24536;45.488;12.238;2024-01-11T02:26:28;20.90;;;12.80;;
38787;SDS011;24536;45.488;12.238;2024-01-11T02:28:54;25.13;;;13.65;;
38787;SDS011;24536;45.488;12.238;2024-01-11T02:31:19;22.08;;;11.65;;
38787;SDS011;24536;45.488;12.238;2024-01-11T02:33:45;19.15;;;10.40;;
38787;SDS011;24536;45.488;12.238;2024-01-11T02:36:12;18.98;;;11.07;;
38787;SDS011;24536;45.488;12.238;2024-01-11T02:38:38;18.20;;;10.60;;
38787;SDS011;24536;45.488;12.238;2024-01-11T02:41:06;20.63;;;11.18;;
38787;SDS011;24536;45.488;12.238;2024-01-11T02:43:33;18.13;;;11.35;;
38787;SDS011;24536;45.488;12.238;2024-01-11T02:46:01;21.45;;;11.60;;
38787;SDS011;24536;45.488;12.238;2024-01-11T02:48:28;12.98;;;8.57;;
38787;SDS011;24536;45.488;12.238;2024-01-11T02:50:54;15.20;;;9.85;;
38787;SDS011;24536;45.488;12.238;2024-01-11T02:53:21;20.52;;;12.23;;
38787;SDS011;24536;45.488;12.238;2024-01-11T02:55:46;19.90;;;11.23;;
38787;SDS011;24536;45.488;12.238;2024-01-11T02:58:12;16.85;;;10.00;;
38787;SDS011;24536;45.488;12.238;2024-01-11T03:00:38;15.23;;;10.57;;
38787;SDS011;24536;45.488;12.238;2024-01-11T03:03:03;18.65;;;10.75;;
38787;SDS011;24536;45.488;12.238;2024-01-11T03:05:29;17.77;;;10.75;;
38787;SDS011;24536;45.488;12.238;2024-01-11T03:07:55;20.38;;;11.05;;
38787;SDS011;24536;45.488;12.238;2024-01-11T03:10:21;17.77;;;10.85;;
38787;SDS011;24536;45.488;12.238;2024-01-11T03:12:47;20.85;;;12.18;;
38787;SDS011;24536;45.488;12.238;2024-01-11T03:15:14;15.25;;;10.27;;
38787;SDS011;24536;45.488;12.238;2024-01-11T03:17:40;21.13;;;11.10;;
38787;SDS011;24536;45.488;12.238;2024-01-11T03:20:06;16.85;;;9.95;;
38787;SDS011;24536;45.488;12.238;2024-01-11T03:22:32;20.13;;;12.25;;
38787;SDS011;24536;45.488;12.238;2024-01-11T03:24:58;16.48;;;10.48;;
38787;SDS011;24536;45.488;12.238;2024-01-11T03:27:24;18.80;;;10.73;;
38787;SDS011;24536;45.488;12.238;2024-01-11T03:29:49;20.40;;;10.75;;
38787;SDS011;24536;45.488;12.238;2024-01-11T03:32:15;20.42;;;11.43;;
38787;SDS011;24536;45.488;12.238;2024-01-11T03:34:41;18.88;;;11.13;;
38787;SDS011;24536;45.488;12.238;2024-01-11T03:37:07;19.30;;;12.63;;
38787;SDS011;24536;45.488;12.238;2024-01-11T03:39:33;20.30;;;12.02;;
38787;SDS011;24536;45.488;12.238;2024-01-11T03:41:59;19.40;;;10.82;;
38787;SDS011;24536;45.488;12.238;2024-01-11T03:44:25;18.15;;;10.82;;
38787;SDS011;24536;45.488;12.238;2024-01-11T03:46:51;18.20;;;11.63;;
38787;SDS011;24536;45.488;12.238;2024-01-11T03:49:16;18.85;;;11.45;;
38787;SDS011;24536;45.488;12.238;2024-01-11T03:51:42;16.63;;;10.63;;
38787;SDS011;24536;45.488;12.238;2024-01-11T03:54:09;19.25;;;11.63;;
38787;SDS011;24536;45.488;12.238;2024-01-11T03:56:37;19.00;;;12.38;;
38787;SDS011;24536;45.488;12.238;2024-01-11T03:59:04;17.90;;;10.83;;
38787;SDS011;24536;45.488;12.238;2024-01-11T04:01:31;21.50;;;12.32;;
38787;SDS011;24536;45.488;12.238;2024-01-11T04:03:58;21.10;;;12.00;;
38787;SDS011;24536;45.488;12.238;2024-01-11T04:06:24;22.13;;;12.23;;
38787;SDS011;24536;45.488;12.238;2024-01-11T04:08:50;22.63;;;11.82;;
38787;SDS011;24536;45.488;12.238;2024-01-11T04:11:16;18.85;;;11.15;;
38787;SDS011;24536;45.488;12.238;2024-01-11T04:13:42;17.75;;;11.02;;
38787;SDS011;24536;45.488;12.238;2024-01-11T04:16:08;16.98;;;11.25;;
38787;SDS011;24536;45.488;12.238;2024-01-11T04:18:34;20.15;;;12.07;;
38787;SDS011;24536;45.488;12.238;2024-01-11T04:20:59;16.75;;;11.25;;
38787;SDS011;24536;45.488;12.238;2024-01-11T04:23:25;18.65;;;12.00;;
38787;SDS011;24536;45.488;12.238;2024-01-11T04:25:51;15.63;;;10.82;;
38787;SDS011;24536;45.488;12.238;2024-01-11T04:28:17;16.98;;;10.57;;
38787;SDS011;24536;45.488;12.238;2024-01-11T04:30:43;19.10;;;11.43;;
38787;SDS011;24536;45.488;12.238;2024-01-11T04:33:09;22.08;;;12.93;;
38787;SDS011;24536;45.488;12.238;2024-01-11T04:35:35;17.73;;;11.07;;
38787;SDS011;24536;45.488;12.238;2024-01-11T04:38:01;18.98;;;11.30;;
38787;SDS011;24536;45.488;12.238;2024-01-11T04:40:28;18.58;;;11.45;;
38787;SDS011;24536;45.488;12.238;2024-01-11T04:42:53;17.27;;;11.18;;
38787;SDS011;24536;45.488;12.238;2024-01-11T04:45:19;20.58;;;11.77;;
38787;SDS011;24536;45.488;12.238;2024-01-11T04:47:45;20.83;;;12.35;;
38787;SDS011;24536;45.488;12.238;2024-01-11T04:50:10;16.38;;;10.63;;
38787;SDS011;24536;45.488;12.238;2024-01-11T04:52:36;19.05;;;11.25;;
38787;SDS011;24536;45.488;12.238;2024-01-11T04:55:02;20.45;;;11.57;;
38787;SDS011;24536;45.488;12.238;2024-01-11T04:57:28;19.23;;;12.85;;
38787;SDS011;24536;45.488;12.238;2024-01-11T04:59:53;18.63;;;11.00;;
38787;SDS011;24536;45.488;12.238;2024-01-11T05:02:22;16.90;;;10.02;;
38787;SDS011;24536;45.488;12.238;2024-01-11T05:04:48;19.60;;;11.25;;
38787;SDS011;24536;45.488;12.238;2024-01-11T05:07:14;23.88;;;11.95;;
38787;SDS011;24536;45.488;12.238;2024-01-11T05:09:39;19.98;;;11.55;;
38787;SDS011;24536;45.488;12.238;2024-01-11T05:12:05;22.77;;;13.10;;
38787;SDS011;24536;45.488;12.238;2024-01-11T05:14:31;18.70;;;11.50;;
38787;SDS011;24536;45.488;12.238;2024-01-11T05:16:57;25.35;;;15.15;;
38787;SDS011;24536;45.488;12.238;2024-01-11T05:19:23;17.58;;;10.55;;
38787;SDS011;24536;45.488;12.238;2024-01-11T05:21:49;25.20;;;15.18;;
38787;SDS011;24536;45.488;12.238;2024-01-11T05:24:14;14.23;;;9.73;;
38787;SDS011;24536;45.488;12.238;2024-01-11T05:26:40;19.52;;;11.20;;
38787;SDS011;24536;45.488;12.238;2024-01-11T05:29:06;25.00;;;14.68;;
38787;SDS011;24536;45.488;12.238;2024-01-11T05:31:31;29.52;;;16.70;;
38787;SDS011;24536;45.488;12.238;2024-01-11T05:33:57;15.95;;;10.20;;
38787;SDS011;24536;45.488;12.238;2024-01-11T05:36:23;25.95;;;15.25;;
38787;SDS011;24536;45.488;12.238;2024-01-11T05:38:48;20.50;;;12.48;;
38787;SDS011;24536;45.488;12.238;2024-01-11T05:41:14;17.30;;;11.23;;
38787;SDS011;24536;45.488;12.238;2024-01-11T05:43:40;21.40;;;12.82;;
38787;SDS011;24536;45.488;12.238;2024-01-11T05:46:06;21.58;;;11.80;;
38787;SDS011;24536;45.488;12.238;2024-01-11T05:48:32;19.08;;;12.30;;
38787;SDS011;24536;45.488;12.238;2024-01-11T05:50:58;20.13;;;12.52;;
38787;SDS011;24536;45.488;12.238;2024-01-11T05:53:24;21.08;;;12.48;;
38787;SDS011;24536;45.488;12.238;2024-01-11T05:55:52;22.02;;;13.45;;
38787;SDS011;24536;45.488;12.238;2024-01-11T05:58:18;21.33;;;11.52;;
38787;SDS011;24536;45.488;12.238;2024-01-11T06:00:44;20.90;;;12.55;;
38787;SDS011;24536;45.488;12.238;2024-01-11T06:03:11;18.70;;;11.27;;
38787;SDS011;24536;45.488;12.238;2024-01-11T06:05:37;22.60;;;13.05;;
38787;SDS011;24536;45.488;12.238;2024-01-11T06:08:04;23.38;;;13.90;;
38787;SDS011;24536;45.488;12.238;2024-01-11T06:10:30;19.73;;;11.20;;
38787;SDS011;24536;45.488;12.238;2024-01-11T06:12:56;24.75;;;13.38;;
38787;SDS011;24536;45.488;12.238;2024-01-11T06:15:22;24.35;;;12.73;;
38787;SDS011;24536;45.488;12.238;2024-01-11T06:17:47;22.95;;;13.32;;
38787;SDS011;24536;45.488;12.238;2024-01-11T06:20:13;20.75;;;12.73;;
38787;SDS011;24536;45.488;12.238;2024-01-11T06:22:39;21.85;;;12.98;;
38787;SDS011;24536;45.488;12.238;2024-01-11T06:25:05;32.70;;;17.77;;
38787;SDS011;24536;45.488;12.238;2024-01-11T06:27:31;21.15;;;13.02;;
38787;SDS011;24536;45.488;12.238;2024-01-11T06:29:56;21.92;;;12.93;;
38787;SDS011;24536;45.488;12.238;2024-01-11T06:32:23;18.35;;;11.65;;
38787;SDS011;24536;45.488;12.238;2024-01-11T06:34:49;26.35;;;15.68;;
38787;SDS011;24536;45.488;12.238;2024-01-11T06:37:14;18.38;;;11.02;;
38787;SDS011;24536;45.488;12.238;2024-01-11T06:39:40;23.55;;;14.40;;
38787;SDS011;24536;45.488;12.238;2024-01-11T06:42:06;20.05;;;12.20;;
38787;SDS011;24536;45.488;12.238;2024-01-11T06:44:31;20.20;;;12.85;;
38787;SDS011;24536;45.488;12.238;2024-01-11T06:46:57;24.15;;;12.05;;
38787;SDS011;24536;45.488;12.238;2024-01-11T06:49:23;22.30;;;11.98;;
38787;SDS011;24536;45.488;12.238;2024-01-11T06:51:48;22.95;;;12.90;;
38787;SDS011;24536;45.488;12.238;2024-01-11T06:54:14;19.98;;;12.90;;
38787;SDS011;24536;45.488;12.238;2024-01-11T06:56:40;19.48;;;10.98;;
38787;SDS011;24536;45.488;12.238;2024-01-11T06:59:06;22.02;;;12.77;;
38787;SDS011;24536;45.488;12.238;2024-01-11T07:01:32;19.40;;;12.07;;
38787;SDS011;24536;45.488;12.238;2024-01-11T07:03:58;20.67;;;13.25;;
38787;SDS011;24536;45.488;12.238;2024-01-11T07:06:23;30.08;;;15.25;;
38787;SDS011;24536;45.488;12.238;2024-01-11T07:08:49;18.55;;;10.27;;
38787;SDS011;24536;45.488;12.238;2024-01-11T07:11:15;21.65;;;11.80;;
38787;SDS011;24536;45.488;12.238;2024-01-11T07:13:41;20.40;;;11.38;;
38787;SDS011;24536;45.488;12.238;2024-01-11T07:16:07;24.33;;;13.55;;
38787;SDS011;24536;45.488;12.238;2024-01-11T07:18:33;20.23;;;12.65;;
38787;SDS011;24536;45.488;12.238;2024-01-11T07:20:59;16.63;;;10.82;;
38787;SDS011;24536;45.488;12.238;2024-01-11T07:23:25;18.35;;;12.07;;
38787;SDS011;24536;45.488;12.238;2024-01-11T07:25:51;19.63;;;12.23;;
38787;SDS011;24536;45.488;12.238;2024-01-11T07:28:17;20.00;;;12.88;;
38787;SDS011;24536;45.488;12.238;2024-01-11T07:30:44;19.58;;;12.68;;
38787;SDS011;24536;45.488;12.238;2024-01-11T07:33:11;19.00;;;12.23;;
38787;SDS011;24536;45.488;12.238;2024-01-11T07:35:37;23.63;;;12.70;;
38787;SDS011;24536;45.488;12.238;2024-01-11T07:38:03;19.30;;;12.45;;
38787;SDS011;24536;45.488;12.238;2024-01-11T07:40:29;21.15;;;12.85;;
38787;SDS011;24536;45.488;12.238;2024-01-11T07:42:55;20.65;;;11.65;;
38787;SDS011;24536;45.488;12.238;2024-01-11T07:45:20;20.02;;;11.73;;
38787;SDS011;24536;45.488;12.238;2024-01-11T07:47:46;17.58;;;11.10;;
38787;SDS011;24536;45.488;12.238;2024-01-11T07:50:12;24.15;;;15.00;;
38787;SDS011;24536;45.488;12.238;2024-01-11T07:52:38;19.65;;;12.68;;
38787;SDS011;24536;45.488;12.238;2024-01-11T07:55:06;23.15;;;13.55;;
38787;SDS011;24536;45.488;12.238;2024-01-11T07:57:33;20.08;;;12.75;;
38787;SDS011;24536;45.488;12.238;2024-01-11T08:00:02;18.77;;;11.60;;
38787;SDS011;24536;45.488;12.238;2024-01-11T08:02:31;23.20;;;13.17;;
38787;SDS011;24536;45.488;12.238;2024-01-11T08:04:57;21.15;;;12.23;;
38787;SDS011;24536;45.488;12.238;2024-01-11T08:07:24;19.33;;;10.27;;
38787;SDS011;24536;45.488;12.238;2024-01-11T08:09:53;19.13;;;10.63;;
38787;SDS011;24536;45.488;12.238;2024-01-11T08:12:19;19.35;;;11.63;;
38787;SDS011;24536;45.488;12.238;2024-01-11T08:14:44;17.73;;;11.60;;
38787;SDS011;24536;45.488;12.238;2024-01-11T08:17:11;20.73;;;11.15;;
38787;SDS011;24536;45.488;12.238;2024-01-11T08:19:38;22.65;;;13.25;;
38787;SDS011;24536;45.488;12.238;2024-01-11T08:22:05;16.58;;;11.10;;
38787;SDS011;24536;45.488;12.238;2024-01-11T08:24:31;18.83;;;11.15;;
38787;SDS011;24536;45.488;12.238;2024-01-11T08:26:57;16.88;;;11.05;;
38787;SDS011;24536;45.488;12.238;2024-01-11T08:29:23;19.33;;;11.60;;
38787;SDS011;24536;45.488;12.238;2024-01-11T08:31:48;21.42;;;11.93;;
38787;SDS011;24536;45.488;12.238;2024-01-11T08:34:14;15.93;;;10.55;;
38787;SDS011;24536;45.488;12.238;2024-01-11T08:36:40;13.55;;;9.40;;
38787;SDS011;24536;45.488;12.238;2024-01-11T08:39:06;19.40;;;10.95;;
38787;SDS011;24536;45.488;12.238;2024-01-11T08:41:32;22.15;;;10.80;;
38787;SDS011;24536;45.488;12.238;2024-01-11T08:43:58;16.23;;;9.68;;
38787;SDS011;24536;45.488;12.238;2024-01-11T08:46:25;17.55;;;10.90;;
38787;SDS011;24536;45.488;12.238;2024-01-11T08:48:52;18.17;;;10.73;;
38787;SDS011;24536;45.488;12.238;2024-01-11T08:51:19;18.80;;;10.57;;
38787;SDS011;24536;45.488;12.238;2024-01-11T08:53:45;18.27;;;12.15;;
38787;SDS011;24536;45.488;12.238;2024-01-11T08:56:10;17.13;;;10.48;;
38787;SDS011;24536;45.488;12.238;2024-01-11T08:58:37;19.55;;;12.20;;
38787;SDS011;24536;45.488;12.238;2024-01-11T09:01:04;18.45;;;11.18;;
38787;SDS011;24536;45.488;12.238;2024-01-11T09:03:30;17.13;;;10.88;;
38787;SDS011;24536;45.488;12.238;2024-01-11T09:05:55;17.60;;;10.82;;
38787;SDS011;24536;45.488;12.238;2024-01-11T09:08:23;15.30;;;10.63;;
38787;SDS011;24536;45.488;12.238;2024-01-11T09:10:48;16.33;;;9.60;;
38787;SDS011;24536;45.488;12.238;2024-01-11T09:13:14;14.77;;;9.75;;
38787;SDS011;24536;45.488;12.238;2024-01-11T09:15:43;18.40;;;9.27;;
38787;SDS011;24536;45.488;12.238;2024-01-11T09:18:08;20.50;;;12.23;;
38787;SDS011;24536;45.488;12.238;2024-01-11T09:20:34;16.25;;;10.27;;
38787;SDS011;24536;45.488;12.238;2024-01-11T09:23:00;15.35;;;10.40;;
38787;SDS011;24536;45.488;12.238;2024-01-11T09:25:28;14.05;;;8.88;;
38787;SDS011;24536;45.488;12.238;2024-01-11T09:27:58;16.77;;;8.95;;
38787;SDS011;24536;45.488;12.238;2024-01-11T09:30:24;18.13;;;8.25;;
38787;SDS011;24536;45.488;12.238;2024-01-11T09:32:50;9.00;;;5.75;;
38787;SDS011;24536;45.488;12.238;2024-01-11T09:35:15;16.60;;;11.07;;
38787;SDS011;24536;45.488;12.238;2024-01-11T09:37:41;16.90;;;9.30;;
38787;SDS011;24536;45.488;12.238;2024-01-11T09:40:11;12.70;;;7.45;;
38787;SDS011;24536;45.488;12.238;2024-01-11T09:42:37;11.80;;;6.95;;
38787;SDS011;24536;45.488;12.238;2024-01-11T09:45:07;16.02;;;9.32;;
38787;SDS011;24536;45.488;12.238;2024-01-11T09:47:35;13.02;;;7.75;;
38787;SDS011;24536;45.488;12.238;2024-01-11T09:50:04;14.07;;;9.20;;
38787;SDS011;24536;45.488;12.238;2024-01-11T09:52:31;13.50;;;8.07;;
38787;SDS011;24536;45.488;12.238;2024-01-11T09:54:57;13.52;;;8.15;;
38787;SDS011;24536;45.488;12.238;2024-01-11T09:57:24;16.42;;;9.50;;
38787;SDS011;24536;45.488;12.238;2024-01-11T09:59:56;18.67;;;8.25;;
38787;SDS011;24536;45.488;12.238;2024-01-11T10:02:23;15.80;;;10.27;;
38787;SDS011;24536;45.488;12.238;2024-01-11T10:04:51;12.10;;;7.53;;
38787;SDS011;24536;45.488;12.238;2024-01-11T10:07:21;10.70;;;7.20;;
38787;SDS011;24536;45.488;12.238;2024-01-11T10:09:48;12.65;;;8.88;;
38787;SDS011;24536;45.488;12.238;2024-01-11T10:12:14;11.15;;;7.28;;
38787;SDS011;24536;45.488;12.238;2024-01-11T10:14:40;12.32;;;7.93;;
38787;SDS011;24536;45.488;12.238;2024-01-11T10:17:06;15.93;;;8.77;;
38787;SDS011;24536;45.488;12.238;2024-01-11T10:19:32;18.15;;;11.68;;
38787;SDS011;24536;45.488;12.238;2024-01-11T10:21:58;15.00;;;8.73;;
38787;SDS011;24536;45.488;12.238;2024-01-11T10:24:24;20.52;;;12.38;;
38787;SDS011;24536;45.488;12.238;2024-01-11T10:26:56;16.92;;;11.07;;
38787;SDS011;24536;45.488;12.238;2024-01-11T10:29:27;16.00;;;9.02;;
38787;SDS011;24536;45.488;12.238;2024-01-11T10:31:55;15.38;;;10.48;;
38787;SDS011;24536;45.488;12.238;2024-01-11T10:34:23;20.50;;;12.20;;
38787;SDS011;24536;45.488;12.238;2024-01-11T10:36:49;18.27;;;9.75;;
38787;SDS011;24536;45.488;12.238;2024-01-11T10:39:16;12.82;;;8.73;;
38787;SDS011;24536;45.488;12.238;2024-01-11T10:41:47;11.95;;;8.20;;
38787;SDS011;24536;45.488;12.238;2024-01-11T10:44:20;11.77;;;7.93;;
38787;SDS011;24536;45.488;12.238;2024-01-11T10:49:16;14.63;;;8.88;;
38787;SDS011;24536;45.488;12.238;2024-01-11T10:51:45;15.90;;;9.25;;
38787;SDS011;24536;45.488;12.238;2024-01-11T10:54:19;10.80;;;7.22;;
38787;SDS011;24536;45.488;12.238;2024-01-11T10:56:46;16.38;;;9.93;;
38787;SDS011;24536;45.488;12.238;2024-01-11T10:59:13;13.15;;;7.88;;
38787;SDS011;24536;45.488;12.238;2024-01-11T11:01:41;13.25;;;8.70;;
38787;SDS011;24536;45.488;12.238;2024-01-11T11:04:08;12.13;;;8.48;;
38787;SDS011;24536;45.488;12.238;2024-01-11T11:06:35;13.13;;;8.98;;
38787;SDS011;24536;45.488;12.238;2024-01-11T11:09:03;12.50;;;8.50;;
38787;SDS011;24536;45.488;12.238;2024-01-11T11:11:30;17.23;;;10.73;;
38787;SDS011;24536;45.488;12.238;2024-01-11T11:14:00;20.15;;;10.63;;
38787;SDS011;24536;45.488;12.238;2024-01-11T11:16:26;10.45;;;7.65;;
38787;SDS011;24536;45.488;12.238;2024-01-11T11:18:53;20.13;;;11.18;;
38787;SDS011;24536;45.488;12.238;2024-01-11T11:21:19;15.82;;;10.85;;
38787;SDS011;24536;45.488;12.238;2024-01-11T11:23:46;16.25;;;10.43;;
38787;SDS011;24536;45.488;12.238;2024-01-11T11:26:18;9.48;;;7.10;;
38787;SDS011;24536;45.488;12.238;2024-01-11T11:28:44;9.85;;;6.63;;
38787;SDS011;24536;45.488;12.238;2024-01-11T11:31:13;9.32;;;6.45;;
38787;SDS011;24536;45.488;12.238;2024-01-11T11:33:59;10.77;;;7.22;;
38787;SDS011;24536;45.488;12.238;2024-01-11T11:36:30;11.15;;;7.93;;
38787;SDS011;24536;45.488;12.238;2024-01-11T11:38:59;15.80;;;10.75;;
38787;SDS011;24536;45.488;12.238;2024-01-11T11:41:26;14.27;;;8.27;;
38787;SDS011;24536;45.488;12.238;2024-01-11T11:43:52;11.45;;;7.97;;
38787;SDS011;24536;45.488;12.238;2024-01-11T11:46:18;11.75;;;7.60;;
38787;SDS011;24536;45.488;12.238;2024-01-11T11:48:51;13.07;;;8.95;;
38787;SDS011;24536;45.488;12.238;2024-01-11T11:51:20;13.68;;;9.50;;
38787;SDS011;24536;45.488;12.238;2024-01-11T11:53:47;11.55;;;8.00;;
38787;SDS011;24536;45.488;12.238;2024-01-11T11:56:15;11.25;;;8.10;;
38787;SDS011;24536;45.488;12.238;2024-01-11T12:07:26;19.30;;;14.60;;
38787;SDS011;24536;45.488;12.238;2024-01-11T12:09:52;14.77;;;10.02;;
38787;SDS011;24536;45.488;12.238;2024-01-11T12:12:18;13.90;;;10.50;;
38787;SDS011;24536;45.488;12.238;2024-01-11T12:14:46;13.88;;;9.35;;
38787;SDS011;24536;45.488;12.238;2024-01-11T12:17:12;13.45;;;9.95;;
38787;SDS011;24536;45.488;12.238;2024-01-11T12:19:38;22.73;;;16.35;;
38787;SDS011;24536;45.488;12.238;2024-01-11T12:22:04;14.73;;;11.18;;
38787;SDS011;24536;45.488;12.238;2024-01-11T12:24:29;13.43;;;10.50;;
38787;SDS011;24536;45.488;12.238;2024-01-11T12:26:57;20.80;;;16.38;;
38787;SDS011;24536;45.488;12.238;2024-01-11T12:29:23;13.32;;;10.43;;
38787;SDS011;24536;45.488;12.238;2024-01-11T12:31:50;13.40;;;9.13;;
38787;SDS011;24536;45.488;12.238;2024-01-11T12:34:16;16.95;;;11.70;;
38787;SDS011;24536;45.488;12.238;2024-01-11T12:36:42;10.77;;;8.70;;
38787;SDS011;24536;45.488;12.238;2024-01-11T12:39:08;13.57;;;9.68;;
38787;SDS011;24536;45.488;12.238;2024-01-11T12:41:38;13.27;;;9.57;;
38787;SDS011;24536;45.488;12.238;2024-01-11T12:44:04;13.93;;;10.30;;
38787;SDS011;24536;45.488;12.238;2024-01-11T12:46:30;11.73;;;8.85;;
38787;SDS011;24536;45.488;12.238;2024-01-11T12:48:56;10.98;;;9.45;;
38787;SDS011;24536;45.488;12.238;2024-01-11T12:51:21;12.27;;;9.60;;
38787;SDS011;24536;45.488;12.238;2024-01-11T12:53:47;10.77;;;8.43;;
38787;SDS011;24536;45.488;12.238;2024-01-11T12:56:14;9.20;;;7.13;;
38787;SDS011;24536;45.488;12.238;2024-01-11T12:58:41;13.73;;;9.73;;
38787;SDS011;24536;45.488;12.238;2024-01-11T13:01:07;10.57;;;8.48;;
38787;SDS011;24536;45.488;12.238;2024-01-11T13:03:43;13.63;;;8.90;;
38787;SDS011;24536;45.488;12.238;2024-01-11T13:06:10;14.32;;;10.98;;
38787;SDS011;24536;45.488;12.238;2024-01-11T13:08:37;14.13;;;10.80;;
38787;SDS011;24536;45.488;12.238;2024-01-11T13:11:07;18.70;;;13.95;;
38787;SDS011;24536;45.488;12.238;2024-01-11T13:13:33;11.57;;;9.50;;
38787;SDS011;24536;45.488;12.238;2024-01-11T13:15:59;14.20;;;11.07;;
38787;SDS011;24536;45.488;12.238;2024-01-11T13:18:25;9.63;;;7.88;;
38787;SDS011;24536;45.488;12.238;2024-01-11T13:20:51;14.70;;;10.13;;
38787;SDS011;24536;45.488;12.238;2024-01-11T13:23:17;14.15;;;11.27;;
38787;SDS011;24536;45.488;12.238;2024-01-11T13:25:47;11.85;;;8.30;;
38787;SDS011;24536;45.488;12.238;2024-01-11T13:28:17;10.13;;;8.05;;
38787;SDS011;24536;45.488;12.238;2024-01-11T13:30:44;9.88;;;7.80;;
38787;SDS011;24536;45.488;12.238;2024-01-11T13:33:11;7.63;;;6.00;;
38787;SDS011;24536;45.488;12.238;2024-01-11T13:35:37;11.98;;;8.95;;
38787;SDS011;24536;45.488;12.238;2024-01-11T13:38:04;14.98;;;10.85;;
38787;SDS011;24536;45.488;12.238;2024-01-11T13:40:30;9.60;;;7.22;;
38787;SDS011;24536;45.488;12.238;2024-01-11T13:42:57;8.85;;;7.18;;
38787;SDS011;24536;45.488;12.238;2024-01-11T13:45:24;9.85;;;7.53;;
38787;SDS011;24536;45.488;12.238;2024-01-11T13:47:50;10.60;;;7.88;;
38787;SDS011;24536;45.488;12.238;2024-01-11T13:50:18;11.35;;;7.88;;
38787;SDS011;24536;45.488;12.238;2024-01-11T13:52:45;10.40;;;7.70;;
38787;SDS011;24536;45.488;12.238;2024-01-11T13:55:11;11.38;;;7.82;;
38787;SDS011;24536;45.488;12.238;2024-01-11T13:57:38;9.57;;;7.28;;
38787;SDS011;24536;45.488;12.238;2024-01-11T14:00:04;13.18;;;8.27;;
38787;SDS011;24536;45.488;12.238;2024-01-11T14:02:31;8.50;;;6.07;;
38787;SDS011;24536;45.488;12.238;2024-01-11T14:04:58;10.70;;;7.38;;
38787;SDS011;24536;45.488;12.238;2024-01-11T14:07:23;8.80;;;6.22;;
38787;SDS011;24536;45.488;12.238;2024-01-11T14:09:50;9.40;;;6.13;;
38787;SDS011;24536;45.488;12.238;2024-01-11T14:12:16;15.45;;;7.53;;
38787;SDS011;24536;45.488;12.238;2024-01-11T14:14:42;9.23;;;6.40;;
38787;SDS011;24536;45.488;12.238;2024-01-11T14:17:08;10.48;;;6.95;;
38787;SDS011;24536;45.488;12.238;2024-01-11T14:19:34;7.68;;;6.05;;
38787;SDS011;24536;45.488;12.238;2024-01-11T14:22:00;11.98;;;7.50;;